createdAt,value
2022-08-14T00:03:00.369Z,22.146
2022-08-14T00:18:02.797Z,21.491
2022-08-14T00:33:15.205Z,21.031
2022-08-14T00:48:34.822Z,21.745
2022-08-14T01:03:39.083Z,22.114
2022-08-14T01:18:41.315Z,24.403
2022-08-14T01:33:59.516Z,23.868
2022-08-14T01:49:02.896Z,24.418
2022-08-14T02:04:05.113Z,24.387
2022-08-14T02:19:23.253Z,25.069
2022-08-14T02:34:27.658Z,27.018
2022-08-14T02:49:33.930Z,30.269
2022-08-14T03:04:36.864Z,31.799
2022-08-14T03:19:42.432Z,34.065
2022-08-14T03:34:48.588Z,35.948
2022-08-14T03:49:58.322Z,39.343
2022-08-14T04:05:08.139Z,38.811
2022-08-14T04:20:15.331Z,38.794
2022-08-14T04:35:56.405Z,39.912
2022-08-14T04:50:59.372Z,39.489
2022-08-14T05:06:02.960Z,40.485
2022-08-14T05:21:59.260Z,39.356
2022-08-14T05:37:03.811Z,42.106
2022-08-14T05:52:09.933Z,48.209
2022-08-14T06:07:12.290Z,44.771
2022-08-14T06:22:14.523Z,43.745
2022-08-14T06:37:19.709Z,49.894
2022-08-14T06:52:24.055Z,46.353
2022-08-14T07:07:28.795Z,47.571
2022-08-14T07:22:33.103Z,49.778
2022-08-14T07:37:58.297Z,47.525
2022-08-14T07:53:01.442Z,55.968
2022-08-14T08:08:08.374Z,58.273
2022-08-14T08:23:40.520Z,53.389
2022-08-14T08:39:16.743Z,52.646
2022-08-14T08:54:26.742Z,58.467
2022-08-14T09:09:34.031Z,59.16
2022-08-14T09:24:57.104Z,55.989
2022-08-14T09:39:59.398Z,57.59
2022-08-14T09:55:02.809Z,58.094
2022-08-14T10:10:23.652Z,57.617
2022-08-14T10:25:26.518Z,57.697
2022-08-14T10:40:38.087Z,56.4
2022-08-14T10:55:46.089Z,56.282
2022-08-14T11:10:48.314Z,58.583
2022-08-14T11:25:52.998Z,57.696
2022-08-14T11:40:55.979Z,56.34
2022-08-14T11:55:58.302Z,59.917
2022-08-14T12:11:00.770Z,60.06
2022-08-14T12:26:39.566Z,58.628
2022-08-14T12:41:43.504Z,58.789
2022-08-14T12:56:45.920Z,61.575
2022-08-14T13:11:49.085Z,61.919
2022-08-14T13:27:01.840Z,63.963
2022-08-14T13:42:05.204Z,55.63
2022-08-14T13:57:10.885Z,61.083
2022-08-14T14:12:36.601Z,57.179
2022-08-14T14:27:43.629Z,59.839
2022-08-14T14:42:46.000Z,53.634
2022-08-14T14:57:52.044Z,55.084
2022-08-14T15:13:00.309Z,56.433
2022-08-14T15:28:06.872Z,50.775
2022-08-14T15:43:13.266Z,47.873
2022-08-14T15:58:15.576Z,49.911
2022-08-14T16:13:39.740Z,44.926
2022-08-14T16:28:44.652Z,43.142
2022-08-14T16:43:47.453Z,41.217
2022-08-14T16:58:50.066Z,39.55
2022-08-14T17:14:00.725Z,39.544
2022-08-14T17:29:03.678Z,39.125
2022-08-14T17:44:06.356Z,38.172
2022-08-14T17:59:11.658Z,37.825
2022-08-14T18:14:31.339Z,36.924
2022-08-14T18:29:35.441Z,35.251
2022-08-14T18:44:44.797Z,34.257
2022-08-14T18:59:47.408Z,32.501
2022-08-14T19:14:51.096Z,30.089
2022-08-14T19:29:53.871Z,31.193
2022-08-14T19:44:56.229Z,28.7
2022-08-14T20:00:00.058Z,22.742
2022-08-14T20:15:02.873Z,23.515
2022-08-14T20:30:29.883Z,25.17
2022-08-14T20:45:36.866Z,22.659
2022-08-14T21:00:52.397Z,20.168
2022-08-14T21:15:58.118Z,21
2022-08-14T21:31:01.282Z,20.565
2022-08-14T21:46:03.606Z,20.376
2022-08-14T22:01:05.970Z,19.939
2022-08-14T22:17:00.558Z,20.142
2022-08-14T22:32:14.327Z,18.392
2022-08-14T22:47:24.673Z,17.862
2022-08-14T23:02:30.246Z,17.965
2022-08-14T23:17:39.540Z,17.58
2022-08-14T23:32:42.768Z,18.421
2022-08-14T23:47:51.654Z,17.976
